Pagina principale
METAR-TAF:

METAR-TAF

Aeroporti :

Aeroporto di Brescia-Ghedi

Brescia Ghedi, Italia

latitudine: 45-25N, longitudine: 010-17E, altezza: 102 m

Osservazione

Il bollettino è stato emesso 55 minuti fa, alle 12:55 UTC
Vento 5 kt da nord-est
Temperature 31°C
Umidità 49%
Pressione 1017 hPa
Visibilità 10 km o più
Poco nuvoloso ad un'altezza di 5000 ft

METAR: LIPL 211255Z 05005KT 9999 FEW050 31/19 Q1017 RMK FEW VIS MIN 9999 WIND THR31 10005KT WIND THR13 09006KT BLU

Ora: 15:50 (13:50 UTC)

Previsione

Il bollettino è stato emesso 2 ore e 50 minuti fa, alle 11:00 UTC
Previsione valida dal 21 alle 12 UTC al 21 alle 21 UTC
Vento 10 kt da est
Visibilità 10 km o più
Poco nuvoloso ad un'altezza di 4000 ft
Nubi sparse ad un'altezza di 8000 ft
Temporaneamente
dal 21 alle 14 UTC al 21 alle 17 UTC
Vento 12 kt da est con raffiche fino a 22 kt

TAF: LIPL 211100Z 2112/2121 08010KT 9999 FEW040 SCT080 TEMPO 2114/2117 10012G22KT

Osservazioni e previsioni meteorologiche di più di 4000 aeroporti (messaggi METAR e TAF).

Le stazioni disponibili sono rappresentate dai dischi gialli e rossi sulla carta.

Puntare il mouse per vedere il nome della stazione.

Clicca sopra per visualizzare le osservazioni e previsioni meteorologiche.

Per cambiare la mappa : fare clic sui pulsanti verdi con una croce nera per ingrandire, il pulsante verde con un trattino per diminuire, o sulla freccia verde per le mappe adiacenti.


METAR-TAF: